Flight Track Log - Related Links

Times and Time Zones

All times are in EDT time to prevent confusion due to time zone crossing. See the AWE339 flight status page for this flight to view local times or setup timezone preferences in your user account.

Time Position Orientation Groundspeed Altitude Reporting Facility
EDT Latitude Longitude Course Direction KTS MPH feet Rate Location/Type
Sat 19:52:00 23.3662 -109.9911 313° West  Level FlightAware Approximate
Sat 19:53:00 23.4467 -110.0800 317° Northwest  Level FlightAware Approximate
Sat 19:54:00 23.5312 -110.1645 317° Northwest  Level FlightAware Approximate
Sat 19:55:00 23.6410 -110.1994 344° North  Level FlightAware Approximate
Sat 19:56:00 23.7514 -110.2330 344° North  Level FlightAware Approximate
Sat 19:57:00 23.8619 -110.2666 344° North  Level FlightAware Approximate
Sat 19:58:00 23.9733 -110.2959 349° North  Level FlightAware Approximate
Sat 19:59:00 24.0852 -110.3228 343° North  Level FlightAware Approximate
Sat 20:00:00 24.1974 -110.3475 351° North  Level FlightAware Approximate
Sat 20:01:00 24.3106 -110.3675 351° North  Level FlightAware Approximate
Sat 20:02:00 24.4238 -110.3873 351° North  Level FlightAware Approximate
Sat 20:03:00 24.5372 -110.4057 352° North  Level FlightAware Approximate
Sat 20:04:00 24.6507 -110.4231 352° North  Level FlightAware Approximate
Sat 20:05:00 24.7643 -110.4406 352° North  Level FlightAware Approximate
Sat 20:06:00 24.8778 -110.4581 352° North  Level FlightAware Approximate
Sat 20:07:00 24.9914 -110.4756 352° North  Level FlightAware Approximate
Sat 20:08:00 25.1049 -110.4930 352° North  Level FlightAware Approximate
Sat 20:09:00 25.2185 -110.5105 352° North  Level FlightAware Approximate
Sat 20:10:00 25.3320 -110.5280 352° North  Level FlightAware Approximate
Sat 20:11:00 25.4457 -110.5445 353° North  Level FlightAware Approximate
Sat 20:12:00 25.5594 -110.5606 353° North  Level FlightAware Approximate
Sat 20:13:00 25.6731 -110.5768 353° North  Level FlightAware Approximate
Sat 20:14:00 25.7869 -110.5930 353° North  Level FlightAware Approximate
Sat 20:15:00 25.9006 -110.6092 353° North  Level FlightAware Approximate
Sat 20:16:00 26.0143 -110.6254 353° North  Level FlightAware Approximate
Sat 20:17:00 26.1280 -110.6417 353° North  Level FlightAware Approximate
Sat 20:18:00 26.2417 -110.6580 353° North  Level FlightAware Approximate
Sat 20:19:00 26.3554 -110.6744 353° North  Level FlightAware Approximate
Sat 20:20:00 26.4691 -110.6907 353° North  Level FlightAware Approximate
Sat 20:21:00 26.5828 -110.7079 352° North  Level FlightAware Approximate
Sat 20:22:00 26.6963 -110.7260 352° North  Level FlightAware Approximate
Sat 20:23:00 26.8098 -110.7442 352° North  Level FlightAware Approximate
Sat 20:24:00 26.9233 -110.7624 352° North  Level FlightAware Approximate
Sat 20:25:00 27.0367 -110.7806 352° North  Level FlightAware Approximate
Sat 20:26:00 27.1502 -110.7989 352° North  Level FlightAware Approximate
Sat 20:27:00 27.2637 -110.8172 352° North  Level FlightAware Approximate
Sat 20:28:00 27.3772 -110.8355 352° North  Level FlightAware Approximate
Sat 20:29:00 27.4908 -110.8533 353° North  Level FlightAware Approximate
Sat 20:30:00 27.6046 -110.8690 353° North  Level FlightAware Approximate
Sat 20:31:00 27.7184 -110.8846 353° North  Level FlightAware Approximate
Sat 20:32:00 27.8322 -110.9004 353° North  Level FlightAware Approximate
Sat 20:33:00 27.9460 -110.9161 353° North  Level FlightAware Approximate
Sat 20:34:00 28.0602 -110.9279 355° North  Level FlightAware Approximate
Sat 20:35:00 28.1743 -110.9396 355° North  Level FlightAware Approximate
Sat 20:36:00 28.2885 -110.9513 355° North  Level FlightAware Approximate
Sat 20:37:00 28.4027 -110.9630 355° North  Level FlightAware Approximate
Sat 20:38:00 28.5169 -110.9747 355° North  Level FlightAware Approximate
Sat 20:39:00 28.6311 -110.9865 355° North  Level FlightAware Approximate
Sat 20:40:00 28.7453 -110.9983 355° North  Level FlightAware Approximate
Sat 20:41:00 28.8594 -111.0101 355° North  Level FlightAware Approximate
Sat 20:42:00 28.9736 -111.0219 355° North  Level FlightAware Approximate
Sat 20:43:00 29.0878 -111.0331 North  Level FlightAware Approximate
Sat 20:44:00 29.2024 -111.0282 North  Level FlightAware Approximate
Sat 20:45:00 29.3169 -111.0232 North  Level FlightAware Approximate
Sat 20:46:00 29.4315 -111.0182 North  Level FlightAware Approximate
Sat 20:47:00 29.5461 -111.0131 North  Level FlightAware Approximate
Sat 20:48:00 29.6607 -111.0081 North  Level FlightAware Approximate
Sat 20:49:00 29.7752 -111.0031 North  Level FlightAware Approximate
Sat 20:50:00 29.8898 -110.9980 North  Level FlightAware Approximate
Sat 20:51:00 30.0044 -110.9930 North  Level FlightAware Approximate
Sat 20:52:00 30.1189 -110.9879 North  Level FlightAware Approximate
Sat 20:53:00 30.2335 -110.9828 North  Level FlightAware Approximate
Sat 20:54:00 30.3481 -110.9777 North  Level FlightAware Approximate
Sat 20:55:00 30.4626 -110.9726 North  Level FlightAware Approximate
Sat 20:56:00 30.5772 -110.9675 North  Level FlightAware Approximate
Sat 20:57:00 30.6917 -110.9623 North  Level FlightAware Approximate
Sat 20:58:00 30.8063 -110.9572 North  Level FlightAware Approximate
Sat 20:59:00 30.9209 -110.9520 North  Level FlightAware Approximate
Sat 21:00:00 31.0354 -110.9468 North  Level FlightAware Approximate
Sat 21:00:13 30.6808 -110.9803 North 440 506 30,000  Level Albuquerque Center
Sat 21:01:00 31.1500 -110.9417 North  Level FlightAware Approximate
Sat 21:01:14 30.8028 -110.9744 North 439 505 30,000  Level Albuquerque Center
Sat 21:02:00 31.2645 -110.9365 North  Level FlightAware Approximate
Sat 21:02:15 30.9242 -110.9689 North 438 504 30,000  Level Albuquerque Center
Sat 21:03:00 31.3791 -110.9313 North  Level FlightAware Approximate
Sat 21:03:16 31.0400 -110.9633 North 424 488 30,000  Level Albuquerque Center
Sat 21:04:00 31.4937 -110.9262 North  Level FlightAware Approximate
Sat 21:04:17 31.1567 -110.9581 North 420 483 30,000  Level Albuquerque Center
Sat 21:05:00 31.6082 -110.9212 North  Level FlightAware Approximate
Sat 21:06:20 31.3894 -110.9469 North 419 482 30,000  Level Albuquerque Center
Sat 21:07:21 31.5044 -110.9419 North 418 481 30,000  Level Albuquerque Center
Sat 21:08:22 31.6197 -110.9356 North 415 478 30,000  Level Albuquerque Center
Sat 21:09:23 31.7364 -110.9339 North 410 472 30,000 -197 Level Albuquerque Center
Sat 21:10:24 31.8486 -110.9292 North 407 468 29,600 -885 Descending Albuquerque Center
Sat 21:11:25 31.9733 -110.9225 North 389 448 28,200 -1,561 Descending Albuquerque Center
Sat 21:12:27 32.0750 -110.9183 North 372 428 26,400 -1,475 Descending Albuquerque Center
Sat 21:13:27 32.1683 -110.9328 353° North 348 400 25,200 -1,091 Descending Albuquerque Center
Sat 21:14:28 32.2606 -110.9586 347° North 342 394 24,200 -590 Descending Albuquerque Center
Sat 21:15:29 32.3508 -110.9839 347° North 336 387 24,000 -246 Descending Albuquerque Center
Sat 21:16:30 32.4422 -111.0081 347° North 336 387 23,700 -585 Descending Albuquerque Center
Sat 21:17:32 32.5322 -111.0333 347° North 333 383 22,800 -927 Descending Albuquerque Center
Sat 21:18:33 32.6197 -111.0583 346° North 327 376 21,800 -984 Descending Albuquerque Center
Sat 21:19:34 32.7042 -111.0831 346° North 318 366 20,800 -1,279 Descending Albuquerque Center
Sat 21:20:35 32.7892 -111.1061 347° North 314 361 19,200 -1,623 Descending Albuquerque Center
Sat 21:21:36 32.8711 -111.1319 345° North 308 354 17,500 -1,820 Descending Albuquerque Center
Sat 21:22:37 32.9228 -111.2322 302° West 293 337 15,500 -1,672 Descending Albuquerque Center
Sat 21:23:38 32.9628 -111.3178 299° West 294 338 14,100 -1,230 Descending Albuquerque Center
Sat 21:24:39 33.0000 -111.4000 298° West 285 328 13,000 -1,230 Descending Albuquerque Center
Sat 21:25:40 33.0414 -111.4794 302° West 283 326 11,600 -1,426 Descending Albuquerque Center
Sat 21:26:41 33.0822 -111.5583 302° West 280 322 10,100 -1,180 Descending Albuquerque Center
Sat 21:27:42 33.1481 -111.5983 333° Northwest 264 304 9,200 -787 Descending Albuquerque Center
Sat 21:28:43 33.2069 -111.6319 334° Northwest 238 274 8,500 -984 Descending Albuquerque Center
Sat 21:29:44 33.2575 -111.6728 326° Northwest 221 254 7,200 -1,230 Descending Albuquerque Center
Sat 21:30:45 33.3083 -111.7153 325° Northwest 224 258 6,000 -1,131 Descending Albuquerque Center
Sat 21:31:46 33.3594 -111.7567 326° Northwest 222 255 4,900 -1,180 Descending Albuquerque Center
Sat 21:32:47 33.4003 -111.8100 313° West 232 267 3,600 -1,279 Descending Albuquerque Center

Login

Don't have an account? Register now (free) for customized features, flight alerts, and more!